sensor_id;sensor_type;location;lat;lon;timestamp;temperature;humidity
6018;DHT22;3037;51.068;13.780;2023-03-11T00:01:14;4.50;99.90
6018;DHT22;3037;51.068;13.780;2023-03-11T00:03:40;4.70;99.90
6018;DHT22;3037;51.068;13.780;2023-03-11T00:06:05;4.30;1.00
6018;DHT22;3037;51.068;13.780;2023-03-11T00:08:31;4.40;1.00
6018;DHT22;3037;51.068;13.780;2023-03-11T00:10:58;4.30;1.00
6018;DHT22;3037;51.068;13.780;2023-03-11T00:13:26;4.10;1.00
6018;DHT22;3037;51.068;13.780;2023-03-11T00:15:53;4.30;1.00
6018;DHT22;3037;51.068;13.780;2023-03-11T00:18:20;3.80;1.00
6018;DHT22;3037;51.068;13.780;2023-03-11T00:20:50;3.80;1.00
6018;DHT22;3037;51.068;13.780;2023-03-11T00:23:15;3.80;1.00
6018;DHT22;3037;51.068;13.780;2023-03-11T00:25:43;3.70;1.00
6018;DHT22;3037;51.068;13.780;2023-03-11T00:28:09;3.70;99.90
6018;DHT22;3037;51.068;13.780;2023-03-11T00:30:38;3.50;1.00
6018;DHT22;3037;51.068;13.780;2023-03-11T00:33:04;3.50;2.70
6018;DHT22;3037;51.068;13.780;2023-03-11T00:35:32;3.30;13.40
6018;DHT22;3037;51.068;13.780;2023-03-11T00:38:04;3.20;99.90
6018;DHT22;3037;51.068;13.780;2023-03-11T00:40:32;3.20;1.00
6018;DHT22;3037;51.068;13.780;2023-03-11T00:42:58;3.00;1.00
6018;DHT22;3037;51.068;13.780;2023-03-11T00:45:25;3.00;1.00
6018;DHT22;3037;51.068;13.780;2023-03-11T00:47:51;2.90;99.90
6018;DHT22;3037;51.068;13.780;2023-03-11T00:50:23;2.80;1.00
6018;DHT22;3037;51.068;13.780;2023-03-11T00:52:50;3.00;1.00
6018;DHT22;3037;51.068;13.780;2023-03-11T00:55:19;2.80;99.90
6018;DHT22;3037;51.068;13.780;2023-03-11T00:57:45;2.80;1.00
6018;DHT22;3037;51.068;13.780;2023-03-11T01:00:15;2.70;1.00
6018;DHT22;3037;51.068;13.780;2023-03-11T01:02:41;2.70;99.90
6018;DHT22;3037;51.068;13.780;2023-03-11T01:05:07;2.70;99.90
6018;DHT22;3037;51.068;13.780;2023-03-11T01:07:33;2.70;1.00
6018;DHT22;3037;51.068;13.780;2023-03-11T01:09:59;2.60;1.00
6018;DHT22;3037;51.068;13.780;2023-03-11T01:12:25;2.70;1.00
6018;DHT22;3037;51.068;13.780;2023-03-11T01:14:51;2.70;99.90
6018;DHT22;3037;51.068;13.780;2023-03-11T01:17:16;2.70;19.20
6018;DHT22;3037;51.068;13.780;2023-03-11T01:19:42;2.60;99.90
6018;DHT22;3037;51.068;13.780;2023-03-11T01:22:09;2.50;99.90
6018;DHT22;3037;51.068;13.780;2023-03-11T01:24:34;2.70;65.00
6018;DHT22;3037;51.068;13.780;2023-03-11T01:27:00;2.70;1.00
6018;DHT22;3037;51.068;13.780;2023-03-11T01:29:26;2.60;99.90
6018;DHT22;3037;51.068;13.780;2023-03-11T01:31:51;2.60;99.90
6018;DHT22;3037;51.068;13.780;2023-03-11T01:34:17;2.60;99.90
6018;DHT22;3037;51.068;13.780;2023-03-11T01:36:42;2.80;1.00
6018;DHT22;3037;51.068;13.780;2023-03-11T01:39:08;2.90;1.00
6018;DHT22;3037;51.068;13.780;2023-03-11T01:41:33;2.80;95.10
6018;DHT22;3037;51.068;13.780;2023-03-11T01:43:59;2.60;99.90
6018;DHT22;3037;51.068;13.780;2023-03-11T01:46:27;2.50;1.00
6018;DHT22;3037;51.068;13.780;2023-03-11T01:48:54;2.60;1.00
6018;DHT22;3037;51.068;13.780;2023-03-11T01:51:29;2.50;1.00
6018;DHT22;3037;51.068;13.780;2023-03-11T01:53:56;2.50;1.00
6018;DHT22;3037;51.068;13.780;2023-03-11T01:56:23;2.50;1.00
6018;DHT22;3037;51.068;13.780;2023-03-11T01:58:52;2.40;99.90
6018;DHT22;3037;51.068;13.780;2023-03-11T02:01:19;2.40;99.90
6018;DHT22;3037;51.068;13.780;2023-03-11T02:03:46;2.40;1.00
6018;DHT22;3037;51.068;13.780;2023-03-11T02:06:16;2.40;99.90
6018;DHT22;3037;51.068;13.780;2023-03-11T02:08:42;2.40;99.90
6018;DHT22;3037;51.068;13.780;2023-03-11T02:11:11;2.30;26.50
6018;DHT22;3037;51.068;13.780;2023-03-11T02:13:40;2.30;99.90
6018;DHT22;3037;51.068;13.780;2023-03-11T02:16:06;2.30;99.90
6018;DHT22;3037;51.068;13.780;2023-03-11T02:18:32;2.40;99.90
6018;DHT22;3037;51.068;13.780;2023-03-11T02:21:05;2.40;99.90
6018;DHT22;3037;51.068;13.780;2023-03-11T02:29:12;2.30;1.00
6018;DHT22;3037;51.068;13.780;2023-03-11T02:31:40;2.50;1.00
6018;DHT22;3037;51.068;13.780;2023-03-11T02:34:13;2.40;99.90
6018;DHT22;3037;51.068;13.780;2023-03-11T02:36:41;2.30;1.00
6018;DHT22;3037;51.068;13.780;2023-03-11T02:39:08;2.40;1.00
6018;DHT22;3037;51.068;13.780;2023-03-11T02:41:39;2.40;1.00
6018;DHT22;3037;51.068;13.780;2023-03-11T02:44:09;2.40;99.90
6018;DHT22;3037;51.068;13.780;2023-03-11T02:46:37;2.50;1.00
6018;DHT22;3037;51.068;13.780;2023-03-11T02:49:03;2.40;99.90
6018;DHT22;3037;51.068;13.780;2023-03-11T02:51:29;2.50;99.90
6018;DHT22;3037;51.068;13.780;2023-03-11T02:53:57;2.50;99.90
6018;DHT22;3037;51.068;13.780;2023-03-11T02:56:24;2.50;99.90
6018;DHT22;3037;51.068;13.780;2023-03-11T02:58:49;2.50;99.90
6018;DHT22;3037;51.068;13.780;2023-03-11T03:01:15;2.40;99.90
6018;DHT22;3037;51.068;13.780;2023-03-11T03:03:40;2.40;1.00
6018;DHT22;3037;51.068;13.780;2023-03-11T03:06:06;2.50;1.00
6018;DHT22;3037;51.068;13.780;2023-03-11T03:08:32;3.10;1.00
6018;DHT22;3037;51.068;13.780;2023-03-11T03:10:57;2.50;1.00
6018;DHT22;3037;51.068;13.780;2023-03-11T03:13:25;2.30;99.90
6018;DHT22;3037;51.068;13.780;2023-03-11T03:15:50;2.30;1.00
6018;DHT22;3037;51.068;13.780;2023-03-11T03:18:16;2.30;99.90
6018;DHT22;3037;51.068;13.780;2023-03-11T03:20:41;2.30;99.90
6018;DHT22;3037;51.068;13.780;2023-03-11T03:23:07;2.30;99.90
6018;DHT22;3037;51.068;13.780;2023-03-11T03:25:33;2.40;1.00
6018;DHT22;3037;51.068;13.780;2023-03-11T03:27:58;2.30;1.00
6018;DHT22;3037;51.068;13.780;2023-03-11T03:30:23;2.30;1.00
6018;DHT22;3037;51.068;13.780;2023-03-11T03:32:49;2.30;1.00
6018;DHT22;3037;51.068;13.780;2023-03-11T03:35:15;2.30;99.90
6018;DHT22;3037;51.068;13.780;2023-03-11T03:37:40;2.20;99.90
6018;DHT22;3037;51.068;13.780;2023-03-11T03:40:06;2.20;99.90
6018;DHT22;3037;51.068;13.780;2023-03-11T03:42:36;1.90;1.00
6018;DHT22;3037;51.068;13.780;2023-03-11T03:45:04;1.90;1.00
6018;DHT22;3037;51.068;13.780;2023-03-11T03:47:31;1.90;1.00
6018;DHT22;3037;51.068;13.780;2023-03-11T03:49:57;1.90;1.00
6018;DHT22;3037;51.068;13.780;2023-03-11T03:52:24;1.80;1.00
6018;DHT22;3037;51.068;13.780;2023-03-11T03:54:49;1.90;1.00
6018;DHT22;3037;51.068;13.780;2023-03-11T03:57:15;1.90;99.90
6018;DHT22;3037;51.068;13.780;2023-03-11T03:59:40;1.90;1.00
6018;DHT22;3037;51.068;13.780;2023-03-11T04:02:06;2.00;1.00
6018;DHT22;3037;51.068;13.780;2023-03-11T04:04:31;1.90;1.00
6018;DHT22;3037;51.068;13.780;2023-03-11T04:06:57;1.80;99.90
6018;DHT22;3037;51.068;13.780;2023-03-11T04:09:23;1.70;99.90
6018;DHT22;3037;51.068;13.780;2023-03-11T04:11:49;1.80;99.90
6018;DHT22;3037;51.068;13.780;2023-03-11T04:14:14;1.70;99.90
6018;DHT22;3037;51.068;13.780;2023-03-11T04:16:40;1.80;1.00
6018;DHT22;3037;51.068;13.780;2023-03-11T04:19:05;1.80;99.90
6018;DHT22;3037;51.068;13.780;2023-03-11T04:21:32;1.80;1.00
6018;DHT22;3037;51.068;13.780;2023-03-11T04:23:57;2.00;1.00
6018;DHT22;3037;51.068;13.780;2023-03-11T04:26:23;1.70;1.00
6018;DHT22;3037;51.068;13.780;2023-03-11T04:28:48;1.80;1.00
6018;DHT22;3037;51.068;13.780;2023-03-11T04:31:14;1.80;1.00
6018;DHT22;3037;51.068;13.780;2023-03-11T04:33:40;1.90;1.00
6018;DHT22;3037;51.068;13.780;2023-03-11T04:36:07;1.70;1.00
6018;DHT22;3037;51.068;13.780;2023-03-11T04:38:33;1.80;1.00
6018;DHT22;3037;51.068;13.780;2023-03-11T04:41:04;1.80;1.00
6018;DHT22;3037;51.068;13.780;2023-03-11T04:43:30;1.70;25.20
6018;DHT22;3037;51.068;13.780;2023-03-11T04:45:55;1.80;99.90
6018;DHT22;3037;51.068;13.780;2023-03-11T04:48:21;1.80;24.60
6018;DHT22;3037;51.068;13.780;2023-03-11T04:50:47;1.70;1.00
6018;DHT22;3037;51.068;13.780;2023-03-11T04:53:12;1.70;1.00
6018;DHT22;3037;51.068;13.780;2023-03-11T04:55:38;1.70;52.20
6018;DHT22;3037;51.068;13.780;2023-03-11T04:58:04;1.60;1.00
6018;DHT22;3037;51.068;13.780;2023-03-11T05:00:30;1.70;99.90
6018;DHT22;3037;51.068;13.780;2023-03-11T05:02:55;1.60;99.90
6018;DHT22;3037;51.068;13.780;2023-03-11T05:05:21;1.60;99.90
6018;DHT22;3037;51.068;13.780;2023-03-11T05:07:47;1.70;59.10
6018;DHT22;3037;51.068;13.780;2023-03-11T05:10:13;1.70;1.00
6018;DHT22;3037;51.068;13.780;2023-03-11T05:12:39;1.70;99.90
6018;DHT22;3037;51.068;13.780;2023-03-11T05:15:05;1.70;99.90
6018;DHT22;3037;51.068;13.780;2023-03-11T05:17:30;1.70;99.90
6018;DHT22;3037;51.068;13.780;2023-03-11T05:19:56;1.70;1.00
6018;DHT22;3037;51.068;13.780;2023-03-11T05:22:22;1.60;99.90
6018;DHT22;3037;51.068;13.780;2023-03-11T05:24:48;1.80;1.00
6018;DHT22;3037;51.068;13.780;2023-03-11T05:27:14;1.70;98.00
6018;DHT22;3037;51.068;13.780;2023-03-11T05:29:43;1.60;1.00
6018;DHT22;3037;51.068;13.780;2023-03-11T05:32:10;1.70;99.90
6018;DHT22;3037;51.068;13.780;2023-03-11T05:34:36;1.60;99.90
6018;DHT22;3037;51.068;13.780;2023-03-11T05:37:01;1.60;99.90
6018;DHT22;3037;51.068;13.780;2023-03-11T05:39:27;1.70;1.00
6018;DHT22;3037;51.068;13.780;2023-03-11T05:41:52;1.80;99.90
6018;DHT22;3037;51.068;13.780;2023-03-11T05:44:20;1.70;1.00
6018;DHT22;3037;51.068;13.780;2023-03-11T05:46:46;1.80;1.00
6018;DHT22;3037;51.068;13.780;2023-03-11T05:49:11;1.80;1.00
6018;DHT22;3037;51.068;13.780;2023-03-11T05:51:37;1.80;1.00
6018;DHT22;3037;51.068;13.780;2023-03-11T05:54:02;1.90;99.90
6018;DHT22;3037;51.068;13.780;2023-03-11T05:56:28;1.90;99.90
6018;DHT22;3037;51.068;13.780;2023-03-11T05:58:56;1.90;1.00
6018;DHT22;3037;51.068;13.780;2023-03-11T06:01:21;1.80;1.00
6018;DHT22;3037;51.068;13.780;2023-03-11T06:03:47;1.90;1.00
6018;DHT22;3037;51.068;13.780;2023-03-11T06:06:13;1.80;1.00
6018;DHT22;3037;51.068;13.780;2023-03-11T06:08:39;1.80;1.00
6018;DHT22;3037;51.068;13.780;2023-03-11T06:11:09;1.90;1.00
6018;DHT22;3037;51.068;13.780;2023-03-11T06:13:36;1.80;1.00
6018;DHT22;3037;51.068;13.780;2023-03-11T06:16:02;1.80;1.00
6018;DHT22;3037;51.068;13.780;2023-03-11T06:18:28;1.80;1.00
6018;DHT22;3037;51.068;13.780;2023-03-11T06:20:55;1.90;1.00
6018;DHT22;3037;51.068;13.780;2023-03-11T06:23:21;1.80;1.00
6018;DHT22;3037;51.068;13.780;2023-03-11T06:26:03;1.90;1.00
6018;DHT22;3037;51.068;13.780;2023-03-11T06:28:29;1.80;99.90
6018;DHT22;3037;51.068;13.780;2023-03-11T06:30:55;1.80;99.90
6018;DHT22;3037;51.068;13.780;2023-03-11T06:33:23;1.90;1.00
6018;DHT22;3037;51.068;13.780;2023-03-11T06:35:56;2.00;1.00
6018;DHT22;3037;51.068;13.780;2023-03-11T06:38:21;2.00;99.90
6018;DHT22;3037;51.068;13.780;2023-03-11T06:40:47;2.10;99.90
6018;DHT22;3037;51.068;13.780;2023-03-11T06:43:12;2.10;99.90
6018;DHT22;3037;51.068;13.780;2023-03-11T06:45:38;2.00;99.90
6018;DHT22;3037;51.068;13.780;2023-03-11T06:48:04;2.10;99.90
6018;DHT22;3037;51.068;13.780;2023-03-11T06:50:29;2.20;99.90
6018;DHT22;3037;51.068;13.780;2023-03-11T06:52:55;2.30;99.90
6018;DHT22;3037;51.068;13.780;2023-03-11T06:55:21;2.20;99.90
6018;DHT22;3037;51.068;13.780;2023-03-11T06:57:47;2.00;99.90
6018;DHT22;3037;51.068;13.780;2023-03-11T07:00:13;2.10;99.90
6018;DHT22;3037;51.068;13.780;2023-03-11T07:02:39;2.30;99.90
6018;DHT22;3037;51.068;13.780;2023-03-11T07:05:05;2.30;99.90
6018;DHT22;3037;51.068;13.780;2023-03-11T07:07:31;2.20;99.90
6018;DHT22;3037;51.068;13.780;2023-03-11T07:09:56;2.40;99.90
6018;DHT22;3037;51.068;13.780;2023-03-11T07:12:22;2.40;17.30
6018;DHT22;3037;51.068;13.780;2023-03-11T07:14:53;2.20;37.60
6018;DHT22;3037;51.068;13.780;2023-03-11T07:17:19;2.10;99.90
6018;DHT22;3037;51.068;13.780;2023-03-11T07:19:45;2.10;83.40
6018;DHT22;3037;51.068;13.780;2023-03-11T07:22:10;2.00;99.90
6018;DHT22;3037;51.068;13.780;2023-03-11T07:24:36;2.00;43.30
6018;DHT22;3037;51.068;13.780;2023-03-11T07:27:01;2.10;99.90
6018;DHT22;3037;51.068;13.780;2023-03-11T07:29:27;2.30;99.90
6018;DHT22;3037;51.068;13.780;2023-03-11T07:31:52;2.20;99.90
6018;DHT22;3037;51.068;13.780;2023-03-11T07:34:18;3.00;99.90
6018;DHT22;3037;51.068;13.780;2023-03-11T07:36:43;2.70;45.70
6018;DHT22;3037;51.068;13.780;2023-03-11T07:39:15;2.60;96.10
6018;DHT22;3037;51.068;13.780;2023-03-11T07:41:41;2.60;1.00
6018;DHT22;3037;51.068;13.780;2023-03-11T07:44:06;2.30;99.90
6018;DHT22;3037;51.068;13.780;2023-03-11T07:46:32;2.40;48.90
6018;DHT22;3037;51.068;13.780;2023-03-11T07:48:59;2.30;99.90
6018;DHT22;3037;51.068;13.780;2023-03-11T07:51:27;2.40;99.90
6018;DHT22;3037;51.068;13.780;2023-03-11T07:53:55;2.50;99.90
6018;DHT22;3037;51.068;13.780;2023-03-11T07:56:22;2.40;27.70
6018;DHT22;3037;51.068;13.780;2023-03-11T07:58:48;2.40;99.90
6018;DHT22;3037;51.068;13.780;2023-03-11T08:01:20;2.30;99.90
6018;DHT22;3037;51.068;13.780;2023-03-11T08:03:47;2.50;99.90
6018;DHT22;3037;51.068;13.780;2023-03-11T08:06:19;2.30;50.50
6018;DHT22;3037;51.068;13.780;2023-03-11T08:08:46;2.40;65.70
6018;DHT22;3037;51.068;13.780;2023-03-11T08:11:13;2.50;55.10
6018;DHT22;3037;51.068;13.780;2023-03-11T08:13:39;2.50;1.00
6018;DHT22;3037;51.068;13.780;2023-03-11T08:16:06;2.40;1.00
6018;DHT22;3037;51.068;13.780;2023-03-11T08:18:32;2.30;1.00
6018;DHT22;3037;51.068;13.780;2023-03-11T08:20:58;2.30;27.30
6018;DHT22;3037;51.068;13.780;2023-03-11T08:23:23;2.50;1.00
6018;DHT22;3037;51.068;13.780;2023-03-11T08:25:49;2.60;1.00
6018;DHT22;3037;51.068;13.780;2023-03-11T08:28:15;2.70;1.00
6018;DHT22;3037;51.068;13.780;2023-03-11T08:30:40;2.80;1.00
6018;DHT22;3037;51.068;13.780;2023-03-11T08:33:06;2.90;1.00
6018;DHT22;3037;51.068;13.780;2023-03-11T08:35:32;2.90;1.00
6018;DHT22;3037;51.068;13.780;2023-03-11T08:37:58;3.00;1.00
6018;DHT22;3037;51.068;13.780;2023-03-11T08:40:23;2.90;1.00
6018;DHT22;3037;51.068;13.780;2023-03-11T08:42:49;3.50;1.00
6018;DHT22;3037;51.068;13.780;2023-03-11T08:45:14;3.10;1.00
6018;DHT22;3037;51.068;13.780;2023-03-11T08:47:40;3.00;1.00
6018;DHT22;3037;51.068;13.780;2023-03-11T08:50:10;2.90;1.00
6018;DHT22;3037;51.068;13.780;2023-03-11T08:52:36;2.90;3.20
6018;DHT22;3037;51.068;13.780;2023-03-11T08:55:02;2.90;59.80
6018;DHT22;3037;51.068;13.780;2023-03-11T08:57:30;3.10;1.00
6018;DHT22;3037;51.068;13.780;2023-03-11T08:59:55;3.10;1.00
6018;DHT22;3037;51.068;13.780;2023-03-11T09:02:23;3.00;1.00
6018;DHT22;3037;51.068;13.780;2023-03-11T09:04:49;3.20;1.00
6018;DHT22;3037;51.068;13.780;2023-03-11T09:07:15;3.30;1.00
6018;DHT22;3037;51.068;13.780;2023-03-11T09:09:41;3.40;1.00
6018;DHT22;3037;51.068;13.780;2023-03-11T09:12:07;3.30;1.00
6018;DHT22;3037;51.068;13.780;2023-03-11T09:14:33;2.90;1.00
6018;DHT22;3037;51.068;13.780;2023-03-11T09:16:59;3.10;1.00
6018;DHT22;3037;51.068;13.780;2023-03-11T09:19:25;3.10;1.00
6018;DHT22;3037;51.068;13.780;2023-03-11T09:21:50;3.10;1.00
6018;DHT22;3037;51.068;13.780;2023-03-11T09:24:16;3.00;1.00
6018;DHT22;3037;51.068;13.780;2023-03-11T09:26:42;3.00;1.00
6018;DHT22;3037;51.068;13.780;2023-03-11T09:29:07;3.00;1.00
6018;DHT22;3037;51.068;13.780;2023-03-11T09:31:33;3.00;1.00
6018;DHT22;3037;51.068;13.780;2023-03-11T09:33:59;2.80;8.30
6018;DHT22;3037;51.068;13.780;2023-03-11T09:36:24;2.80;99.90
6018;DHT22;3037;51.068;13.780;2023-03-11T09:38:50;2.80;99.90
6018;DHT22;3037;51.068;13.780;2023-03-11T09:44:11;2.60;99.90
6018;DHT22;3037;51.068;13.780;2023-03-11T09:46:56;2.50;99.90
6018;DHT22;3037;51.068;13.780;2023-03-11T09:52:14;2.80;99.90
6018;DHT22;3037;51.068;13.780;2023-03-11T09:54:46;2.80;21.10
6018;DHT22;3037;51.068;13.780;2023-03-11T09:57:23;2.90;99.90
6018;DHT22;3037;51.068;13.780;2023-03-11T09:59:49;2.80;99.90
6018;DHT22;3037;51.068;13.780;2023-03-11T10:02:21;2.60;99.90
6018;DHT22;3037;51.068;13.780;2023-03-11T10:05:05;2.80;99.90
6018;DHT22;3037;51.068;13.780;2023-03-11T10:07:38;2.90;93.90
6018;DHT22;3037;51.068;13.780;2023-03-11T10:10:05;3.10;41.60
6018;DHT22;3037;51.068;13.780;2023-03-11T10:15:41;2.90;1.00
6018;DHT22;3037;51.068;13.780;2023-03-11T10:18:36;3.00;1.00
6018;DHT22;3037;51.068;13.780;2023-03-11T10:26:36;3.20;1.00
6018;DHT22;3037;51.068;13.780;2023-03-11T10:29:31;3.30;1.00
6018;DHT22;3037;51.068;13.780;2023-03-11T10:32:08;3.80;1.00
6018;DHT22;3037;51.068;13.780;2023-03-11T10:34:45;3.70;1.00
6018;DHT22;3037;51.068;13.780;2023-03-11T10:37:37;5.20;99.90
6018;DHT22;3037;51.068;13.780;2023-03-11T10:40:28;5.50;1.00
6018;DHT22;3037;51.068;13.780;2023-03-11T10:42:57;5.10;1.00
6018;DHT22;3037;51.068;13.780;2023-03-11T10:45:24;4.80;1.00
6018;DHT22;3037;51.068;13.780;2023-03-11T10:47:51;4.50;1.00
6018;DHT22;3037;51.068;13.780;2023-03-11T10:50:18;4.50;1.00
6018;DHT22;3037;51.068;13.780;2023-03-11T10:55:29;4.60;1.00
6018;DHT22;3037;51.068;13.780;2023-03-11T10:58:04;4.70;1.00
6018;DHT22;3037;51.068;13.780;2023-03-11T11:00:30;4.70;1.00
6018;DHT22;3037;51.068;13.780;2023-03-11T11:02:56;4.70;1.00
6018;DHT22;3037;51.068;13.780;2023-03-11T11:05:30;4.50;1.00
6018;DHT22;3037;51.068;13.780;2023-03-11T11:08:14;4.30;1.00
6018;DHT22;3037;51.068;13.780;2023-03-11T11:10:58;4.30;1.00
6018;DHT22;3037;51.068;13.780;2023-03-11T11:13:29;4.10;1.00
6018;DHT22;3037;51.068;13.780;2023-03-11T11:15:57;4.10;1.00
6018;DHT22;3037;51.068;13.780;2023-03-11T11:18:30;4.00;1.00
6018;DHT22;3037;51.068;13.780;2023-03-11T11:21:04;4.50;1.00
6018;DHT22;3037;51.068;13.780;2023-03-11T11:26:06;4.10;1.00
6018;DHT22;3037;51.068;13.780;2023-03-11T11:28:33;4.40;1.00
6018;DHT22;3037;51.068;13.780;2023-03-11T11:31:05;4.70;1.00
6018;DHT22;3037;51.068;13.780;2023-03-11T11:33:39;5.10;1.00
6018;DHT22;3037;51.068;13.780;2023-03-11T11:36:14;6.00;1.00
6018;DHT22;3037;51.068;13.780;2023-03-11T11:38:40;6.20;1.00
6018;DHT22;3037;51.068;13.780;2023-03-11T11:41:12;6.80;1.00
6018;DHT22;3037;51.068;13.780;2023-03-11T11:46:21;7.60;1.00
6018;DHT22;3037;51.068;13.780;2023-03-11T11:51:38;9.30;1.00
6018;DHT22;3037;51.068;13.780;2023-03-11T11:56:48;9.70;1.00
6018;DHT22;3037;51.068;13.780;2023-03-11T11:59:18;8.60;1.00
6018;DHT22;3037;51.068;13.780;2023-03-11T12:04:41;7.70;1.00
6018;DHT22;3037;51.068;13.780;2023-03-11T12:12:23;5.90;1.00
6018;DHT22;3037;51.068;13.780;2023-03-11T12:15:15;5.70;1.00
6018;DHT22;3037;51.068;13.780;2023-03-11T12:17:45;5.60;1.00
6018;DHT22;3037;51.068;13.780;2023-03-11T12:20:32;5.10;1.00
6018;DHT22;3037;51.068;13.780;2023-03-11T12:25:40;4.90;1.00
6018;DHT22;3037;51.068;13.780;2023-03-11T12:30:47;5.00;1.00
6018;DHT22;3037;51.068;13.780;2023-03-11T12:33:29;4.70;1.00
6018;DHT22;3037;51.068;13.780;2023-03-11T12:35:57;4.60;1.00
6018;DHT22;3037;51.068;13.780;2023-03-11T12:38:34;4.70;1.00
6018;DHT22;3037;51.068;13.780;2023-03-11T12:46:11;4.20;1.00
6018;DHT22;3037;51.068;13.780;2023-03-11T12:48:42;4.10;1.00
6018;DHT22;3037;51.068;13.780;2023-03-11T12:56:45;4.10;1.00
6018;DHT22;3037;51.068;13.780;2023-03-11T13:02:34;3.80;1.00
6018;DHT22;3037;51.068;13.780;2023-03-11T13:05:16;4.20;1.00
6018;DHT22;3037;51.068;13.780;2023-03-11T13:07:53;4.30;1.00
6018;DHT22;3037;51.068;13.780;2023-03-11T13:10:38;3.70;1.00
6018;DHT22;3037;51.068;13.780;2023-03-11T13:15:52;4.30;1.00
6018;DHT22;3037;51.068;13.780;2023-03-11T13:23:36;5.40;1.00
6018;DHT22;3037;51.068;13.780;2023-03-11T13:31:42;5.80;1.00
6018;DHT22;3037;51.068;13.780;2023-03-11T13:34:45;6.40;1.00
6018;DHT22;3037;51.068;13.780;2023-03-11T13:42:59;7.30;1.00
6018;DHT22;3037;51.068;13.780;2023-03-11T13:45:31;7.40;1.00
6018;DHT22;3037;51.068;13.780;2023-03-11T13:48:13;6.80;1.00
6018;DHT22;3037;51.068;13.780;2023-03-11T13:50:46;6.10;1.00
6018;DHT22;3037;51.068;13.780;2023-03-11T13:53:24;5.60;1.00
6018;DHT22;3037;51.068;13.780;2023-03-11T13:55:53;5.10;1.00
6018;DHT22;3037;51.068;13.780;2023-03-11T13:58:24;5.20;1.00
6018;DHT22;3037;51.068;13.780;2023-03-11T14:00:53;5.10;1.00
6018;DHT22;3037;51.068;13.780;2023-03-11T14:03:20;5.10;1.00
6018;DHT22;3037;51.068;13.780;2023-03-11T14:05:56;5.10;1.00
6018;DHT22;3037;51.068;13.780;2023-03-11T14:08:24;4.90;1.00
6018;DHT22;3037;51.068;13.780;2023-03-11T14:13:37;4.50;1.00
6018;DHT22;3037;51.068;13.780;2023-03-11T14:16:15;4.80;1.00
6018;DHT22;3037;51.068;13.780;2023-03-11T14:19:11;4.80;1.00
6018;DHT22;3037;51.068;13.780;2023-03-11T14:21:41;4.50;1.00
6018;DHT22;3037;51.068;13.780;2023-03-11T14:24:18;4.80;1.00
6018;DHT22;3037;51.068;13.780;2023-03-11T14:26:45;4.90;1.00
6018;DHT22;3037;51.068;13.780;2023-03-11T14:29:18;4.90;1.00
6018;DHT22;3037;51.068;13.780;2023-03-11T14:31:45;4.70;1.00
6018;DHT22;3037;51.068;13.780;2023-03-11T14:34:26;4.60;1.00
6018;DHT22;3037;51.068;13.780;2023-03-11T14:36:56;4.60;1.00
6018;DHT22;3037;51.068;13.780;2023-03-11T14:39:37;4.80;1.00
6018;DHT22;3037;51.068;13.780;2023-03-11T14:44:40;5.30;1.00
6018;DHT22;3037;51.068;13.780;2023-03-11T14:47:47;5.10;1.00
6018;DHT22;3037;51.068;13.780;2023-03-11T14:50:20;5.20;1.00
6018;DHT22;3037;51.068;13.780;2023-03-11T14:52:54;5.10;1.00
6018;DHT22;3037;51.068;13.780;2023-03-11T14:55:26;5.00;1.00
6018;DHT22;3037;51.068;13.780;2023-03-11T14:58:02;5.20;1.00
6018;DHT22;3037;51.068;13.780;2023-03-11T15:00:34;4.60;1.00
6018;DHT22;3037;51.068;13.780;2023-03-11T15:03:30;4.80;1.00
6018;DHT22;3037;51.068;13.780;2023-03-11T15:06:08;4.90;1.00
6018;DHT22;3037;51.068;13.780;2023-03-11T15:08:42;4.90;1.00
6018;DHT22;3037;51.068;13.780;2023-03-11T15:13:39;4.70;1.00
6018;DHT22;3037;51.068;13.780;2023-03-11T15:16:20;4.30;1.00
6018;DHT22;3037;51.068;13.780;2023-03-11T15:18:46;4.00;1.00
6018;DHT22;3037;51.068;13.780;2023-03-11T15:21:20;4.30;1.00
6018;DHT22;3037;51.068;13.780;2023-03-11T15:23:50;4.50;1.00
6018;DHT22;3037;51.068;13.780;2023-03-11T15:26:24;4.40;1.00
6018;DHT22;3037;51.068;13.780;2023-03-11T15:29:00;4.50;1.00
6018;DHT22;3037;51.068;13.780;2023-03-11T15:31:34;4.50;1.00
6018;DHT22;3037;51.068;13.780;2023-03-11T15:41:45;4.20;1.00
6018;DHT22;3037;51.068;13.780;2023-03-11T15:44:25;4.40;1.00
6018;DHT22;3037;51.068;13.780;2023-03-11T15:46:52;4.40;1.00
6018;DHT22;3037;51.068;13.780;2023-03-11T15:49:18;4.10;1.00
6018;DHT22;3037;51.068;13.780;2023-03-11T15:51:43;4.20;1.00
6018;DHT22;3037;51.068;13.780;2023-03-11T15:54:09;4.30;1.00
6018;DHT22;3037;51.068;13.780;2023-03-11T15:56:34;4.20;1.00
6018;DHT22;3037;51.068;13.780;2023-03-11T15:59:00;4.30;1.00
6018;DHT22;3037;51.068;13.780;2023-03-11T16:01:26;4.00;1.00
6018;DHT22;3037;51.068;13.780;2023-03-11T16:03:53;4.20;1.00
6018;DHT22;3037;51.068;13.780;2023-03-11T16:06:19;4.10;1.00
6018;DHT22;3037;51.068;13.780;2023-03-11T16:08:47;4.00;1.00
6018;DHT22;3037;51.068;13.780;2023-03-11T16:11:12;4.00;1.00
6018;DHT22;3037;51.068;13.780;2023-03-11T16:13:38;4.00;1.00
6018;DHT22;3037;51.068;13.780;2023-03-11T16:16:04;3.80;1.00
6018;DHT22;3037;51.068;13.780;2023-03-11T16:18:29;3.90;1.00
6018;DHT22;3037;51.068;13.780;2023-03-11T16:20:55;3.90;1.00
6018;DHT22;3037;51.068;13.780;2023-03-11T16:23:30;3.90;1.00
6018;DHT22;3037;51.068;13.780;2023-03-11T16:26:00;3.90;1.00
6018;DHT22;3037;51.068;13.780;2023-03-11T16:28:26;3.80;1.00
6018;DHT22;3037;51.068;13.780;2023-03-11T16:30:52;3.70;1.00
6018;DHT22;3037;51.068;13.780;2023-03-11T16:33:17;3.70;1.00
6018;DHT22;3037;51.068;13.780;2023-03-11T16:35:43;3.70;1.00
6018;DHT22;3037;51.068;13.780;2023-03-11T16:38:09;3.70;1.00
6018;DHT22;3037;51.068;13.780;2023-03-11T16:40:34;3.60;1.00
6018;DHT22;3037;51.068;13.780;2023-03-11T16:43:02;3.60;1.00
6018;DHT22;3037;51.068;13.780;2023-03-11T16:45:29;3.60;1.00
6018;DHT22;3037;51.068;13.780;2023-03-11T16:47:54;3.70;1.00
6018;DHT22;3037;51.068;13.780;2023-03-11T16:50:20;3.80;1.00
6018;DHT22;3037;51.068;13.780;2023-03-11T16:52:49;3.80;1.00
6018;DHT22;3037;51.068;13.780;2023-03-11T16:55:14;3.60;1.00
6018;DHT22;3037;51.068;13.780;2023-03-11T16:57:40;3.40;1.00
6018;DHT22;3037;51.068;13.780;2023-03-11T17:00:06;3.20;1.00
6018;DHT22;3037;51.068;13.780;2023-03-11T17:02:34;3.20;1.00
6018;DHT22;3037;51.068;13.780;2023-03-11T17:05:00;3.10;1.00
6018;DHT22;3037;51.068;13.780;2023-03-11T17:07:25;3.20;1.00
6018;DHT22;3037;51.068;13.780;2023-03-11T17:09:51;3.10;1.00
6018;DHT22;3037;51.068;13.780;2023-03-11T17:12:17;3.40;1.00
6018;DHT22;3037;51.068;13.780;2023-03-11T17:14:44;3.10;1.00
6018;DHT22;3037;51.068;13.780;2023-03-11T17:17:10;2.80;1.00
6018;DHT22;3037;51.068;13.780;2023-03-11T17:19:35;2.70;1.00
6018;DHT22;3037;51.068;13.780;2023-03-11T17:22:01;2.60;1.00
6018;DHT22;3037;51.068;13.780;2023-03-11T17:24:27;2.30;1.00
6018;DHT22;3037;51.068;13.780;2023-03-11T17:26:53;2.50;99.90
6018;DHT22;3037;51.068;13.780;2023-03-11T17:29:18;2.90;99.90
6018;DHT22;3037;51.068;13.780;2023-03-11T17:31:44;4.10;99.90
6018;DHT22;3037;51.068;13.780;2023-03-11T17:34:10;4.10;48.70
6018;DHT22;3037;51.068;13.780;2023-03-11T17:36:35;4.00;1.00
6018;DHT22;3037;51.068;13.780;2023-03-11T17:39:01;4.30;1.00
6018;DHT22;3037;51.068;13.780;2023-03-11T17:41:26;3.30;1.00
6018;DHT22;3037;51.068;13.780;2023-03-11T17:43:52;2.70;1.00
6018;DHT22;3037;51.068;13.780;2023-03-11T17:46:18;2.30;1.00
6018;DHT22;3037;51.068;13.780;2023-03-11T17:48:46;1.90;1.00
6018;DHT22;3037;51.068;13.780;2023-03-11T17:51:18;1.90;1.00
6018;DHT22;3037;51.068;13.780;2023-03-11T17:53:45;1.80;1.00
6018;DHT22;3037;51.068;13.780;2023-03-11T17:56:12;1.70;1.00